Time,TemperatureF,DewpointF,PressureIn,WindDirection,WindDirectionDegrees,WindSpeedMPH,WindSpeedGustMPH,Humidity,HourlyPrecipIn,Conditions,Clouds,dailyrainin,SoftwareType,DateUTC
2013-02-15 00:00:00,31.7,27.4,29.94,WNW,296,1.0,1.0,84,0.00,,,0.00,Wunderground v.1.15,2013-02-15 05:00:00,
2013-02-15 00:05:00,31.8,27.2,29.94,WNW,296,1.0,1.0,83,0.00,,,0.00,Wunderground v.1.15,2013-02-15 05:05:00,
2013-02-15 00:10:00,31.8,27.2,29.94,NW,311,1.0,1.0,83,0.00,,,0.00,Wunderground v.1.15,2013-02-15 05:10:00,
2013-02-15 00:21:00,31.0,27.0,29.95,West,271,0.0,0.0,85,0.00,,,0.00,Wunderground v.1.15,2013-02-15 05:21:00,
2013-02-15 00:30:00,32.4,28.1,29.94,NW,314,1.0,1.0,84,0.00,,,0.00,Wunderground v.1.15,2013-02-15 05:30:00,
2013-02-15 00:40:00,32.5,27.9,29.95,WNW,300,1.0,1.0,83,0.00,,,0.00,Wunderground v.1.15,2013-02-15 05:40:00,
2013-02-15 00:50:00,33.3,28.4,29.94,NW,307,1.0,1.0,82,0.00,,,0.00,Wunderground v.1.15,2013-02-15 05:50:00,
2013-02-15 00:55:00,33.3,28.4,29.95,NW,310,1.0,1.0,82,0.00,,,0.00,Wunderground v.1.15,2013-02-15 05:55:00,
2013-02-15 01:00:00,32.4,27.2,29.95,NW,311,0.0,0.0,81,0.00,,,0.00,Wunderground v.1.15,2013-02-15 06:00:00,
2013-02-15 01:10:00,30.4,26.7,29.95,NW,310,0.0,3.0,86,0.00,,,0.00,Wunderground v.1.15,2013-02-15 06:10:00,
2013-02-15 01:20:00,30.0,26.6,29.95,NW,309,0.0,3.0,87,0.00,,,0.00,Wunderground v.1.15,2013-02-15 06:20:00,
2013-02-15 01:30:00,29.4,26.3,29.96,WNW,290,0.0,3.0,88,0.00,,,0.00,Wunderground v.1.15,2013-02-15 06:30:00,
2013-02-15 01:40:00,29.0,25.9,29.95,WNW,291,0.0,3.0,88,0.00,,,0.00,Wunderground v.1.15,2013-02-15 06:40:00,
2013-02-15 01:50:00,28.0,25.2,29.96,WNW,291,0.0,3.0,89,0.00,,,0.00,Wunderground v.1.15,2013-02-15 06:50:00,
2013-02-15 02:00:00,27.4,25.1,29.96,WNW,291,0.0,0.0,91,0.00,,,0.00,Wunderground v.1.15,2013-02-15 07:00:00,
2013-02-15 02:11:00,27.1,25.1,29.96,WNW,291,0.0,0.0,92,0.00,,,0.00,Wunderground v.1.15,2013-02-15 07:11:00,
2013-02-15 02:20:00,26.7,24.7,29.96,WNW,290,0.0,0.0,92,0.00,,,0.00,Wunderground v.1.15,2013-02-15 07:20:00,
2013-02-15 02:30:00,26.8,25.0,29.96,WNW,290,0.0,0.0,93,0.00,,,0.00,Wunderground v.1.15,2013-02-15 07:30:00,
2013-02-15 02:40:00,27.0,25.2,29.96,WNW,288,0.0,0.0,93,0.00,,,0.00,Wunderground v.1.15,2013-02-15 07:40:00,
2013-02-15 02:50:00,27.4,25.9,29.96,WNW,290,0.0,0.0,94,0.00,,,0.00,Wunderground v.1.15,2013-02-15 07:50:00,
2013-02-15 03:00:00,27.2,25.4,29.95,WNW,290,0.0,0.0,93,0.00,,,0.00,Wunderground v.1.15,2013-02-15 08:00:00,
2013-02-15 03:10:00,27.3,25.5,29.95,WNW,290,0.0,4.0,93,0.00,,,0.00,Wunderground v.1.15,2013-02-15 08:10:00,
2013-02-15 03:20:00,26.9,25.1,29.95,WNW,290,0.0,4.0,93,0.00,,,0.00,Wunderground v.1.15,2013-02-15 08:20:00,
2013-02-15 03:30:00,27.3,25.8,29.95,WNW,290,0.0,4.0,94,0.00,,,0.00,Wunderground v.1.15,2013-02-15 08:30:00,
2013-02-15 03:40:00,27.7,26.2,29.95,WNW,290,0.0,4.0,94,0.00,,,0.00,Wunderground v.1.15,2013-02-15 08:40:00,
2013-02-15 03:50:00,28.1,26.6,29.95,WNW,290,0.0,4.0,94,0.00,,,0.00,Wunderground v.1.15,2013-02-15 08:50:00,
2013-02-15 04:00:00,28.3,26.8,29.95,WNW,294,0.0,4.0,94,0.00,,,0.00,Wunderground v.1.15,2013-02-15 09:00:00,
2013-02-15 04:10:00,28.6,26.6,29.95,West,277,0.0,0.0,92,0.00,,,0.00,Wunderground v.1.15,2013-02-15 09:10:00,
2013-02-15 04:20:00,27.9,25.9,29.95,West,277,0.0,0.0,92,0.00,,,0.00,Wunderground v.1.15,2013-02-15 09:20:00,
2013-02-15 04:31:00,27.9,26.1,29.95,WNW,283,0.0,0.0,93,0.00,,,0.00,Wunderground v.1.15,2013-02-15 09:31:00,
2013-02-15 04:41:00,28.0,26.2,29.95,WNW,294,0.0,0.0,93,0.00,,,0.00,Wunderground v.1.15,2013-02-15 09:41:00,
2013-02-15 04:50:00,27.9,26.1,29.95,WNW,294,0.0,0.0,93,0.00,,,0.00,Wunderground v.1.15,2013-02-15 09:50:00,
2013-02-15 05:00:00,27.7,25.9,29.95,WNW,293,0.0,0.0,93,0.00,,,0.00,Wunderground v.1.15,2013-02-15 10:00:00,
2013-02-15 05:10:00,27.7,26.2,29.96,WNW,294,0.0,1.0,94,0.00,,,0.00,Wunderground v.1.15,2013-02-15 10:10:00,
2013-02-15 05:20:00,28.0,26.5,29.96,WNW,294,0.0,1.0,94,0.00,,,0.00,Wunderground v.1.15,2013-02-15 10:20:00,
2013-02-15 05:30:00,28.0,26.5,29.96,WNW,294,0.0,1.0,94,0.00,,,0.00,Wunderground v.1.15,2013-02-15 10:30:00,
2013-02-15 05:40:00,27.9,26.4,29.95,WNW,294,0.0,1.0,94,0.00,,,0.00,Wunderground v.1.15,2013-02-15 10:40:00,
2013-02-15 05:55:00,27.7,26.2,29.95,WNW,294,0.0,1.0,94,0.00,,,0.00,Wunderground v.1.15,2013-02-15 10:55:00,
2013-02-15 06:00:00,27.7,26.5,29.95,WNW,294,0.0,0.0,95,0.00,,,0.00,Wunderground v.1.15,2013-02-15 11:00:00,
2013-02-15 06:10:00,27.7,26.5,29.95,WNW,294,0.0,0.0,95,0.00,,,0.00,Wunderground v.1.15,2013-02-15 11:10:00,
2013-02-15 06:21:00,27.7,26.5,29.95,WNW,294,0.0,0.0,95,0.00,,,0.00,Wunderground v.1.15,2013-02-15 11:21:00,
2013-02-15 06:35:00,27.6,26.4,29.95,WNW,294,0.0,0.0,95,0.00,,,0.00,Wunderground v.1.15,2013-02-15 11:35:00,
2013-02-15 06:40:00,27.6,26.4,29.96,WNW,293,0.0,0.0,95,0.00,,,0.00,Wunderground v.1.15,2013-02-15 11:40:00,
2013-02-15 06:50:00,27.5,26.3,29.96,WNW,294,0.0,0.0,95,0.00,,,0.00,Wunderground v.1.15,2013-02-15 11:50:00,
2013-02-15 07:00:00,27.4,26.2,29.96,WNW,293,0.0,0.0,95,0.00,,,0.00,Wunderground v.1.15,2013-02-15 12:00:00,
2013-02-15 07:10:00,27.4,26.2,29.96,WNW,294,0.0,2.0,95,0.00,,,0.00,Wunderground v.1.15,2013-02-15 12:10:00,
2013-02-15 07:20:00,27.3,26.1,29.97,WNW,294,0.0,2.0,95,0.00,,,0.00,Wunderground v.1.15,2013-02-15 12:20:00,
2013-02-15 07:30:00,27.5,26.3,29.97,West,278,0.0,2.0,95,0.00,,,0.00,Wunderground v.1.15,2013-02-15 12:30:00,
2013-02-15 07:40:00,28.5,27.5,29.98,West,260,0.0,2.0,96,0.00,,,0.00,Wunderground v.1.15,2013-02-15 12:40:00,
2013-02-15 07:50:00,29.3,28.0,29.98,West,260,0.0,2.0,95,0.00,,,0.00,Wunderground v.1.15,2013-02-15 12:50:00,
2013-02-15 08:00:00,30.6,29.3,29.98,West,259,0.0,2.0,95,0.00,,,0.00,Wunderground v.1.15,2013-02-15 13:00:00,
2013-02-15 08:10:00,31.5,30.2,29.99,West,259,0.0,0.0,95,0.00,,,0.00,Wunderground v.1.15,2013-02-15 13:10:00,
2013-02-15 08:20:00,34.0,33.0,29.98,West,260,0.0,0.0,96,0.00,,,0.00,Wunderground v.1.15,2013-02-15 13:20:00,
2013-02-15 08:30:00,36.0,34.7,29.99,West,259,0.0,0.0,95,0.00,,,0.00,Wunderground v.1.15,2013-02-15 13:30:00,
2013-02-15 08:40:00,38.2,36.1,29.99,WNW,284,0.0,0.0,92,0.00,,,0.00,Wunderground v.1.15,2013-02-15 13:40:00,
2013-02-15 08:55:00,40.5,35.7,29.99,South,191,0.0,0.0,83,0.00,,,0.00,Wunderground v.1.15,2013-02-15 13:55:00,
2013-02-15 09:00:00,41.3,35.6,29.99,South,185,0.0,0.0,80,0.00,,,0.00,Wunderground v.1.15,2013-02-15 14:00:00,
2013-02-15 09:10:00,42.0,34.6,29.99,SE,131,0.0,2.0,75,0.00,,,0.00,Wunderground v.1.15,2013-02-15 14:10:00,
2013-02-15 09:20:00,42.8,35.1,29.99,SE,138,0.0,2.0,74,0.00,,,0.00,Wunderground v.1.15,2013-02-15 14:20:00,
2013-02-15 09:30:00,43.5,35.4,29.99,West,281,0.0,2.0,73,0.00,,,0.00,Wunderground v.1.15,2013-02-15 14:30:00,
2013-02-15 09:40:00,44.0,35.6,29.99,SE,124,0.0,2.0,72,0.00,,,0.00,Wunderground v.1.15,2013-02-15 14:40:00,
2013-02-15 09:50:00,44.5,35.7,29.98,SE,124,0.0,2.0,71,0.00,,,0.00,Wunderground v.1.15,2013-02-15 14:50:00,
2013-02-15 10:00:00,45.4,36.5,29.98,East,96,0.0,0.0,71,0.00,,,0.00,Wunderground v.1.15,2013-02-15 15:00:00,
2013-02-15 10:10:00,45.7,35.7,29.98,East,96,1.0,2.0,68,0.00,,,0.00,Wunderground v.1.15,2013-02-15 15:10:00,
2013-02-15 10:20:00,46.3,35.9,29.98,WNW,287,1.0,1.0,67,0.00,,,0.00,Wunderground v.1.15,2013-02-15 15:20:00,
2013-02-15 10:30:00,47.0,36.2,29.97,East,87,1.0,4.0,66,0.00,,,0.00,Wunderground v.1.15,2013-02-15 15:30:00,
2013-02-15 10:40:00,47.7,36.5,29.97,South,181,2.0,2.0,65,0.00,,,0.00,Wunderground v.1.15,2013-02-15 15:40:00,
2013-02-15 10:51:00,47.8,36.2,29.97,South,184,3.0,3.0,64,0.00,,,0.00,Wunderground v.1.15,2013-02-15 15:51:00,
2013-02-15 11:00:00,48.1,34.0,29.97,WNW,293,2.0,2.0,58,0.00,,,0.00,Wunderground v.1.15,2013-02-15 16:00:00,
2013-02-15 11:10:00,47.9,33.8,29.97,East,94,5.0,5.0,58,0.00,,,0.00,Wunderground v.1.15,2013-02-15 16:10:00,
2013-02-15 11:20:00,48.5,34.4,29.97,NNW,347,3.0,3.0,58,0.00,,,0.00,Wunderground v.1.15,2013-02-15 16:20:00,
2013-02-15 11:30:00,49.3,34.3,29.96,WNW,302,2.0,2.0,56,0.00,,,0.00,Wunderground v.1.15,2013-02-15 16:30:00,
2013-02-15 11:45:00,49.8,34.3,29.95,NW,320,2.0,2.0,55,0.00,,,0.00,Wunderground v.1.15,2013-02-15 16:45:00,
2013-02-15 11:51:00,49.4,33.0,29.95,NW,308,4.0,8.0,53,0.00,,,0.00,Wunderground v.1.15,2013-02-15 16:51:00,
2013-02-15 12:00:00,49.4,33.4,29.95,WSW,239,4.0,7.0,54,0.00,,,0.00,Wunderground v.1.15,2013-02-15 17:00:00,
2013-02-15 12:10:00,49.1,32.7,29.95,West,279,6.0,6.0,53,0.00,,,0.00,Wunderground v.1.15,2013-02-15 17:10:00,
2013-02-15 12:20:00,49.0,32.6,29.95,NW,322,4.0,4.0,53,0.00,,,0.00,Wunderground v.1.15,2013-02-15 17:20:00,
2013-02-15 12:30:00,48.9,31.5,29.94,NW,310,4.0,4.0,51,0.00,,,0.00,Wunderground v.1.15,2013-02-15 17:30:00,
2013-02-15 12:40:00,50.0,33.5,29.93,NW,309,3.0,6.0,53,0.00,,,0.00,Wunderground v.1.15,2013-02-15 17:40:00,
2013-02-15 12:50:00,48.8,32.4,29.93,NW,304,4.0,10.0,53,0.00,,,0.00,Wunderground v.1.15,2013-02-15 17:50:00,
2013-02-15 13:00:00,48.7,32.3,29.92,NNW,328,5.0,5.0,53,0.00,,,0.00,Wunderground v.1.15,2013-02-15 18:00:00,
2013-02-15 13:10:00,50.2,33.2,29.92,West,264,4.0,4.0,52,0.00,,,0.00,Wunderground v.1.15,2013-02-15 18:10:00,
2013-02-15 13:20:00,51.0,32.5,29.91,WNW,282,3.0,14.0,49,0.00,,,0.00,Wunderground v.1.15,2013-02-15 18:20:00,
2013-02-15 13:30:00,50.5,32.5,29.91,NW,316,5.0,5.0,50,0.00,,,0.00,Wunderground v.1.15,2013-02-15 18:30:00,
2013-02-15 13:40:00,51.6,32.0,29.91,SW,226,4.0,4.0,47,0.00,,,0.00,Wunderground v.1.15,2013-02-15 18:40:00,
2013-02-15 13:50:00,52.4,33.8,29.90,NW,320,4.0,14.0,49,0.00,,,0.00,Wunderground v.1.15,2013-02-15 18:50:00,
2013-02-15 14:00:00,52.5,32.8,29.90,NW,318,3.0,6.0,47,0.00,,,0.00,Wunderground v.1.15,2013-02-15 19:00:00,
2013-02-15 14:10:00,52.0,31.8,29.89,West,269,3.0,6.0,46,0.00,,,0.00,Wunderground v.1.15,2013-02-15 19:10:00,
2013-02-15 14:20:00,50.2,31.8,29.89,NW,319,3.0,5.0,49,0.00,,,0.00,Wunderground v.1.15,2013-02-15 19:20:00,
2013-02-15 14:30:00,49.4,31.5,29.89,NW,314,3.0,5.0,50,0.00,,,0.00,Wunderground v.1.15,2013-02-15 19:30:00,
2013-02-15 14:40:00,49.1,31.2,29.89,NW,317,2.0,2.0,50,0.00,,,0.00,Wunderground v.1.15,2013-02-15 19:40:00,
2013-02-15 14:51:00,49.0,32.1,29.88,NNW,330,4.0,4.0,52,0.00,,,0.00,Wunderground v.1.15,2013-02-15 19:51:00,
2013-02-15 15:00:00,49.7,32.8,29.88,WNW,300,3.0,3.0,52,0.00,,,0.00,Wunderground v.1.15,2013-02-15 20:00:00,
2013-02-15 15:10:00,49.2,31.8,29.88,West,280,5.0,5.0,51,0.00,,,0.00,Wunderground v.1.15,2013-02-15 20:10:00,
2013-02-15 15:21:00,49.0,32.6,29.88,NW,319,3.0,3.0,53,0.00,,,0.00,Wunderground v.1.15,2013-02-15 20:21:00,
2013-02-15 15:30:00,49.1,32.7,29.87,NW,306,3.0,3.0,53,0.00,,,0.00,Wunderground v.1.15,2013-02-15 20:30:00,
2013-02-15 15:40:00,49.1,32.7,29.87,NW,306,2.0,13.0,53,0.00,,,0.00,Wunderground v.1.15,2013-02-15 20:40:00,
2013-02-15 15:50:00,48.6,32.7,29.88,NW,307,4.0,13.0,54,0.00,,,0.00,Wunderground v.1.15,2013-02-15 20:50:00,
2013-02-15 16:01:00,47.7,32.3,29.88,WSW,240,4.0,4.0,55,0.00,,,0.00,Wunderground v.1.15,2013-02-15 21:01:00,
2013-02-15 16:10:00,47.0,33.8,29.88,NW,314,3.0,3.0,60,0.00,,,0.00,Wunderground v.1.15,2013-02-15 21:10:00,
2013-02-15 16:25:00,46.1,34.2,29.88,NE,55,4.0,4.0,63,0.00,,,0.00,Wunderground v.1.15,2013-02-15 21:25:00,
2013-02-15 16:30:00,46.1,35.0,29.88,West,267,3.0,4.0,65,0.00,,,0.00,Wunderground v.1.15,2013-02-15 21:30:00,
2013-02-15 16:40:00,45.9,34.8,29.88,NW,321,3.0,5.0,65,0.00,,,0.00,Wunderground v.1.15,2013-02-15 21:40:00,
2013-02-15 16:50:00,45.8,34.7,29.89,WNW,295,4.0,6.0,65,0.00,,,0.00,Wunderground v.1.15,2013-02-15 21:50:00,
2013-02-15 17:00:00,45.1,35.5,29.89,NW,304,5.0,7.0,69,0.00,,,0.00,Wunderground v.1.15,2013-02-15 22:00:00,
2013-02-15 17:11:00,44.2,35.4,29.89,WNW,293,3.0,12.0,71,0.00,,,0.00,Wunderground v.1.15,2013-02-15 22:11:00,
2013-02-15 17:20:00,43.9,35.5,29.89,NW,308,3.0,3.0,72,0.00,,,0.00,Wunderground v.1.15,2013-02-15 22:20:00,
2013-02-15 17:31:00,43.2,36.5,29.89,North,351,4.0,12.0,77,0.00,,,0.00,Wunderground v.1.15,2013-02-15 22:31:00,
2013-02-15 17:40:00,42.0,36.6,29.89,WNW,288,3.0,3.0,81,0.00,,,0.01,Wunderground v.1.15,2013-02-15 22:40:00,
2013-02-15 17:51:00,41.4,36.9,29.89,WNW,298,1.0,12.0,84,0.06,,,0.02,Wunderground v.1.15,2013-02-15 22:51:00,
2013-02-15 18:00:00,41.1,37.2,29.89,WSW,238,1.0,2.0,86,0.05,,,0.03,Wunderground v.1.15,2013-02-15 23:00:00,
2013-02-15 18:10:00,40.9,37.0,29.89,West,267,2.0,2.0,86,0.00,,,0.03,Wunderground v.1.15,2013-02-15 23:10:00,
2013-02-15 18:20:00,40.6,37.0,29.90,WNW,302,2.0,6.0,87,0.00,,,0.03,Wunderground v.1.15,2013-02-15 23:20:00,
2013-02-15 18:30:00,39.5,36.0,29.91,WNW,300,4.0,8.0,87,0.00,,,0.03,Wunderground v.1.15,2013-02-15 23:30:00,
2013-02-15 18:40:00,37.3,33.8,29.92,SW,221,4.0,6.0,87,0.00,,,0.03,Wunderground v.1.15,2013-02-15 23:40:00,
2013-02-15 18:51:00,35.5,32.6,29.93,NW,306,6.0,6.0,89,0.00,,,0.03,Wunderground v.1.15,2013-02-15 23:51:00,
2013-02-15 19:05:00,34.2,31.8,29.93,NW,308,6.0,12.0,91,0.00,,,0.03,Wunderground v.1.15,2013-02-16 00:05:00,
2013-02-15 19:15:00,33.7,31.6,29.93,WNW,298,5.0,12.0,92,0.00,,,0.03,Wunderground v.1.15,2013-02-16 00:15:00,
2013-02-15 19:20:00,33.6,31.8,29.94,West,280,5.0,12.0,93,0.00,,,0.03,Wunderground v.1.15,2013-02-16 00:20:00,
2013-02-15 19:30:00,33.3,31.5,29.94,NW,309,5.0,12.0,93,0.00,,,0.03,Wunderground v.1.15,2013-02-16 00:30:00,
2013-02-15 19:40:00,33.3,31.5,29.94,WSW,255,5.0,12.0,93,0.00,,,0.03,Wunderground v.1.15,2013-02-16 00:40:00,
2013-02-15 19:50:00,33.2,31.1,29.94,WNW,300,4.0,12.0,92,0.00,,,0.03,Wunderground v.1.15,2013-02-16 00:50:00,
2013-02-15 20:00:00,33.2,31.1,29.94,NW,307,5.0,6.0,92,0.00,,,0.03,Wunderground v.1.15,2013-02-16 01:00:00,
2013-02-15 20:15:00,33.2,31.1,29.94,WSW,251,4.0,4.0,92,0.00,,,0.03,Wunderground v.1.15,2013-02-16 01:15:00,
2013-02-15 20:20:00,33.2,31.1,29.94,West,259,4.0,4.0,92,0.00,,,0.03,Wunderground v.1.15,2013-02-16 01:20:00,
2013-02-15 20:31:00,33.2,31.1,29.94,WNW,283,4.0,9.0,92,0.00,,,0.03,Wunderground v.1.15,2013-02-16 01:31:00,
2013-02-15 20:40:00,33.2,31.1,29.94,West,262,3.0,6.0,92,0.00,,,0.03,Wunderground v.1.15,2013-02-16 01:40:00,
2013-02-15 20:50:00,33.1,31.0,29.94,WNW,301,4.0,5.0,92,0.00,,,0.03,Wunderground v.1.15,2013-02-16 01:50:00,